Time;durP1;ratioP1;P1;durP2;ratioP2;P2;SDS_P1;SDS_P2;PMS_P1;PMS_P2;Temp;Humidity;BMP_temperature;BMP_pressure;BME280_temperature;BME280_humidity;BME280_pressure;Samples;Min_cycle;Max_cycle;Signal;HPM_P1;HPM_P2
2023/03/04 00:01:25;;;;;;;68.22;50.50;;;16.80;55.80;;;;;;4921371;28;87334;-54
2023/03/04 00:03:51;;;;;;;69.72;51.22;;;16.80;55.90;;;;;;4934567;28;86144;-56
2023/03/04 00:06:17;;;;;;;67.95;50.42;;;16.80;55.70;;;;;;4921404;28;86210;-55
2023/03/04 00:08:42;;;;;;;69.85;50.92;;;16.70;56.10;;;;;;4931542;28;86412;-55
2023/03/04 00:11:08;;;;;;;67.90;50.55;;;16.70;56.00;;;;;;4929614;28;88805;-51
2023/03/04 00:13:33;;;;;;;69.10;50.45;;;16.70;56.10;;;;;;4933504;28;86027;-55
2023/03/04 00:15:59;;;;;;;68.15;50.45;;;16.80;55.90;;;;;;4928262;28;86244;-56
2023/03/04 00:18:25;;;;;;;67.80;49.75;;;16.70;55.90;;;;;;4926193;28;86186;-49
2023/03/04 00:20:50;;;;;;;67.65;50.38;;;16.70;55.90;;;;;;4928927;28;91043;-53
2023/03/04 00:23:16;;;;;;;67.35;50.15;;;16.70;55.90;;;;;;4935420;28;85694;-56
2023/03/04 00:25:42;;;;;;;65.55;49.75;;;16.70;55.80;;;;;;4924925;28;87281;-54
2023/03/04 00:28:07;;;;;;;68.43;50.00;;;16.70;56.00;;;;;;4932797;28;85529;-54
2023/03/04 00:30:33;;;;;;;67.75;50.03;;;16.70;55.90;;;;;;4928528;28;86143;-56
2023/03/04 00:32:59;;;;;;;66.80;50.10;;;16.70;55.60;;;;;;4930605;28;86892;-55
2023/03/04 00:35:24;;;;;;;67.43;49.83;;;16.70;56.00;;;;;;4922456;28;88732;-55
2023/03/04 00:37:50;;;;;;;69.38;50.22;;;16.70;56.00;;;;;;4923825;28;87727;-53
2023/03/04 00:40:16;;;;;;;67.18;49.88;;;16.70;55.80;;;;;;4931720;28;88554;-54
2023/03/04 00:42:41;;;;;;;67.05;49.88;;;16.60;55.90;;;;;;4924222;28;90223;-53
2023/03/04 00:45:08;;;;;;;67.93;49.88;;;16.60;55.90;;;;;;4928026;28;86262;-52
2023/03/04 00:47:34;;;;;;;70.05;49.88;;;16.50;55.60;;;;;;4928620;28;86561;-55
2023/03/04 00:50:00;;;;;;;66.70;49.45;;;16.50;55.70;;;;;;4923182;28;86283;-54
2023/03/04 00:52:25;;;;;;;68.50;49.55;;;16.50;56.50;;;;;;4924353;28;86592;-51
2023/03/04 00:54:51;;;;;;;67.80;49.42;;;16.50;55.90;;;;;;4935838;28;85945;-54
2023/03/04 00:57:17;;;;;;;68.90;49.53;;;16.50;56.10;;;;;;4922083;28;86492;-56
2023/03/04 00:59:42;;;;;;;67.60;49.50;;;16.50;56.00;;;;;;4929063;28;86772;-56
2023/03/04 01:02:09;;;;;;;66.78;49.53;;;16.40;56.00;;;;;;4929523;28;88270;-53
2023/03/04 01:04:35;;;;;;;67.10;49.38;;;16.40;56.10;;;;;;4929242;28;87022;-54
2023/03/04 01:07:01;;;;;;;66.30;49.20;;;16.40;56.20;;;;;;4927125;28;86457;-54
2023/03/04 01:09:27;;;;;;;66.35;48.92;;;16.40;56.00;;;;;;4926265;28;86088;-54
2023/03/04 01:11:52;;;;;;;67.10;49.63;;;16.40;56.10;;;;;;4934772;28;86789;-54
2023/03/04 01:14:18;;;;;;;66.53;49.40;;;16.30;56.20;;;;;;4934816;28;90225;-55
2023/03/04 01:16:44;;;;;;;68.50;49.20;;;16.40;56.20;;;;;;4933965;28;85466;-56
2023/03/04 01:19:10;;;;;;;66.78;49.47;;;16.30;55.90;;;;;;4935344;28;87701;-52
2023/03/04 01:21:36;;;;;;;69.53;49.30;;;16.40;56.00;;;;;;4933219;28;86178;-56
2023/03/04 01:24:01;;;;;;;67.38;48.97;;;16.40;56.00;;;;;;4931236;28;85888;-53
2023/03/04 01:26:27;;;;;;;67.45;48.92;;;16.40;56.20;;;;;;4934993;28;85374;-55
2023/03/04 01:28:53;;;;;;;66.65;49.28;;;16.40;56.10;;;;;;4938706;28;86646;-56
2023/03/04 01:31:18;;;;;;;66.90;49.58;;;16.30;56.00;;;;;;4941316;28;86795;-55
2023/03/04 01:33:44;;;;;;;66.72;48.97;;;16.30;56.20;;;;;;4934350;28;87856;-53
2023/03/04 01:36:10;;;;;;;66.15;48.97;;;16.30;56.10;;;;;;4929618;28;85612;-54
2023/03/04 01:38:35;;;;;;;68.15;49.25;;;16.30;56.20;;;;;;4934915;28;87646;-56
2023/03/04 01:41:01;;;;;;;65.97;48.78;;;16.30;56.20;;;;;;4933138;28;88599;-56
2023/03/04 01:43:29;;;;;;;68.60;49.17;;;16.30;56.30;;;;;;4932422;28;88993;-54
2023/03/04 01:45:57;;;;;;;67.90;49.05;;;16.20;56.20;;;;;;4931486;28;87624;-54
2023/03/04 01:48:32;;;;;;;66.35;48.92;;;16.20;56.30;;;;;;4933811;28;86341;-55
2023/03/04 01:51:02;;;;;;;67.20;49.28;;;16.20;56.30;;;;;;4931921;28;86184;-55
2023/03/04 01:53:28;;;;;;;66.22;48.83;;;16.30;56.30;;;;;;4932218;28;85673;-55
2023/03/04 01:55:59;;;;;;;66.93;49.00;;;16.20;56.30;;;;;;4930425;28;89023;-56
2023/03/04 01:58:29;;;;;;;67.78;49.33;;;16.30;56.30;;;;;;4934118;28;85714;-55
2023/03/04 02:00:55;;;;;;;66.53;48.72;;;16.20;56.20;;;;;;4931548;28;85997;-53
2023/03/04 02:03:21;;;;;;;65.90;49.03;;;16.20;56.30;;;;;;4925051;28;89184;-53
2023/03/04 02:05:52;;;;;;;66.70;48.88;;;16.20;56.40;;;;;;4929370;28;85618;-53
2023/03/04 02:08:20;;;;;;;67.33;48.93;;;16.20;56.30;;;;;;4934782;28;86213;-55
2023/03/04 02:10:46;;;;;;;65.68;48.78;;;16.20;56.40;;;;;;4926824;28;87012;-55
2023/03/04 02:13:14;;;;;;;66.07;48.92;;;16.20;57.00;;;;;;4920615;28;86429;-54
2023/03/04 02:15:41;;;;;;;67.97;49.15;;;16.10;56.20;;;;;;4936030;28;86945;-54
2023/03/04 02:18:18;;;;;;;66.95;48.75;;;16.20;56.20;;;;;;4930765;28;86144;-55
2023/03/04 02:20:58;;;;;;;67.65;48.83;;;16.10;56.20;;;;;;4931861;28;87391;-56
2023/03/04 02:23:47;;;;;;;67.13;48.80;;;16.20;56.20;;;;;;4930995;28;85518;-55
2023/03/04 02:26:19;;;;;;;67.28;48.35;;;16.20;56.20;;;;;;4939467;28;87857;-54
2023/03/04 02:28:46;;;;;;;65.45;48.55;;;16.10;56.20;;;;;;4929487;28;86784;-54
2023/03/04 02:31:32;;;;;;;67.05;48.58;;;16.20;56.00;;;;;;4928097;28;85656;-55
2023/03/04 02:34:09;;;;;;;65.50;48.72;;;16.20;56.00;;;;;;4932487;28;86426;-54
2023/03/04 02:36:35;;;;;;;65.55;48.83;;;16.10;56.20;;;;;;4926724;28;85602;-53
2023/03/04 02:39:10;;;;;;;66.18;48.50;;;16.10;56.20;;;;;;4926391;28;86730;-55
2023/03/04 02:41:36;;;;;;;66.55;48.83;;;16.10;56.20;;;;;;4925436;28;89069;-55
2023/03/04 02:44:02;;;;;;;67.40;48.53;;;16.10;56.10;;;;;;4932440;28;85811;-55
2023/03/04 02:46:28;;;;;;;68.00;48.53;;;16.10;56.10;;;;;;4936182;28;85641;-55
2023/03/04 02:48:53;;;;;;;66.72;48.97;;;16.10;56.20;;;;;;4927417;28;86010;-55
2023/03/04 02:51:19;;;;;;;66.32;48.63;;;16.00;56.20;;;;;;4920460;28;86785;-55
2023/03/04 02:53:45;;;;;;;66.45;49.05;;;16.10;56.20;;;;;;4928337;28;87128;-49
2023/03/04 02:56:11;;;;;;;66.65;48.58;;;16.10;56.20;;;;;;4936477;28;87839;-55
2023/03/04 02:58:37;;;;;;;69.07;49.00;;;16.00;56.00;;;;;;4931348;28;86669;-55
2023/03/04 03:01:04;;;;;;;68.45;48.72;;;16.10;55.90;;;;;;4933803;28;87664;-55
2023/03/04 03:03:30;;;;;;;66.57;48.88;;;16.00;56.10;;;;;;4934577;28;86528;-55
2023/03/04 03:05:55;;;;;;;66.93;48.80;;;16.10;56.10;;;;;;4922593;28;87369;-56
2023/03/04 03:08:21;;;;;;;67.70;48.75;;;16.00;56.00;;;;;;4924546;28;86866;-56
2023/03/04 03:10:47;;;;;;;66.95;48.67;;;16.00;55.90;;;;;;4937655;28;87974;-53
2023/03/04 03:13:12;;;;;;;68.75;49.20;;;16.00;55.80;;;;;;4935208;28;87060;-55
2023/03/04 03:15:41;;;;;;;67.63;48.83;;;16.00;56.00;;;;;;4922940;28;89824;-56
2023/03/04 03:18:09;;;;;;;65.20;48.63;;;16.00;55.90;;;;;;4914021;28;88708;-49
2023/03/04 03:20:34;;;;;;;68.53;49.13;;;16.00;55.90;;;;;;4937991;28;86064;-52
2023/03/04 03:23:00;;;;;;;65.57;48.60;;;16.00;55.60;;;;;;4933947;28;86911;-55
2023/03/04 03:25:26;;;;;;;66.25;48.85;;;15.90;55.80;;;;;;4926300;28;87180;-55
2023/03/04 03:27:51;;;;;;;68.38;48.88;;;15.90;56.00;;;;;;4929341;28;89388;-54
2023/03/04 03:30:17;;;;;;;67.30;48.95;;;15.90;55.90;;;;;;4932026;28;87359;-56
2023/03/04 03:32:43;;;;;;;66.18;48.92;;;15.90;55.90;;;;;;4925397;28;87972;-54
2023/03/04 03:35:09;;;;;;;68.65;48.55;;;15.90;55.90;;;;;;4932131;28;88683;-53
2023/03/04 03:37:35;;;;;;;65.78;48.63;;;15.90;56.00;;;;;;4933758;28;86577;-53
2023/03/04 03:40:00;;;;;;;68.45;48.75;;;15.90;55.90;;;;;;4938751;28;86975;-55
2023/03/04 03:42:26;;;;;;;67.63;48.95;;;15.90;55.90;;;;;;4921539;28;86792;-55
2023/03/04 03:44:52;;;;;;;64.43;48.15;;;15.90;55.90;;;;;;4921089;28;87317;-54
2023/03/04 03:47:17;;;;;;;65.35;48.17;;;15.90;56.00;;;;;;4934721;28;85851;-55
2023/03/04 03:49:43;;;;;;;66.45;48.45;;;15.80;56.00;;;;;;4923258;28;85933;-55
2023/03/04 03:52:09;;;;;;;68.15;48.60;;;15.80;56.00;;;;;;4929527;28;87908;-53
2023/03/04 03:54:35;;;;;;;65.65;48.42;;;15.90;56.00;;;;;;4926157;28;86122;-54
2023/03/04 03:57:01;;;;;;;67.28;48.85;;;15.80;55.90;;;;;;4929721;28;86590;-54
2023/03/04 03:59:26;;;;;;;67.63;48.60;;;15.80;55.90;;;;;;4924384;28;86852;-52
2023/03/04 04:01:52;;;;;;;65.72;48.28;;;15.80;56.00;;;;;;4930817;28;86576;-55
2023/03/04 04:04:17;;;;;;;65.95;48.25;;;15.90;55.90;;;;;;4936641;28;87661;-56
2023/03/04 04:06:43;;;;;;;65.70;48.38;;;15.90;55.70;;;;;;4929424;28;90369;-55
2023/03/04 04:09:09;;;;;;;68.55;48.53;;;15.80;55.60;;;;;;4921623;28;87031;-55
2023/03/04 04:11:35;;;;;;;66.13;48.55;;;15.80;55.90;;;;;;4925452;28;87777;-56
2023/03/04 04:14:01;;;;;;;67.38;48.30;;;15.80;56.00;;;;;;4927570;28;90080;-56
2023/03/04 04:16:27;;;;;;;66.70;48.53;;;15.80;55.90;;;;;;4931608;28;91098;-56
2023/03/04 04:18:52;;;;;;;66.68;48.42;;;15.80;55.80;;;;;;4924255;28;94338;-54
2023/03/04 04:21:18;;;;;;;69.40;48.55;;;15.80;55.80;;;;;;4932761;28;88007;-54
2023/03/04 04:23:44;;;;;;;66.35;48.05;;;15.80;55.80;;;;;;4920318;28;87406;-53
2023/03/04 04:26:09;;;;;;;67.07;48.05;;;15.80;55.70;;;;;;4923863;28;86963;-55
2023/03/04 04:28:35;;;;;;;65.22;48.20;;;15.80;55.90;;;;;;4931850;28;86748;-56
2023/03/04 04:31:01;;;;;;;65.80;48.58;;;15.80;55.70;;;;;;4919977;28;91473;-55
2023/03/04 04:33:26;;;;;;;66.45;48.38;;;15.80;55.80;;;;;;4922297;28;86340;-55
2023/03/04 04:35:52;;;;;;;65.05;48.20;;;15.80;55.80;;;;;;4927740;28;86894;-55
2023/03/04 04:38:17;;;;;;;65.00;48.33;;;15.80;55.90;;;;;;4925554;28;87418;-54
2023/03/04 04:40:43;;;;;;;66.28;48.58;;;15.80;55.90;;;;;;4924070;28;91055;-55
2023/03/04 04:43:09;;;;;;;66.00;48.35;;;15.80;55.80;;;;;;4922484;28;89973;-54
2023/03/04 04:45:35;;;;;;;67.55;48.25;;;15.70;56.30;;;;;;4930007;28;87140;-56
2023/03/04 04:48:00;;;;;;;67.05;48.40;;;15.80;55.80;;;;;;4919710;28;87636;-55
2023/03/04 04:50:26;;;;;;;65.32;48.70;;;15.70;55.80;;;;;;4917150;28;86911;-54
2023/03/04 04:52:52;;;;;;;65.95;48.35;;;15.70;55.60;;;;;;4926539;28;86769;-56
2023/03/04 04:55:18;;;;;;;65.00;47.97;;;15.80;55.70;;;;;;4933357;28;86110;-56
2023/03/04 04:57:43;;;;;;;66.45;48.17;;;15.80;55.70;;;;;;4925156;28;88170;-52
2023/03/04 05:00:10;;;;;;;65.30;48.50;;;15.80;55.80;;;;;;4929947;28;92378;-54
2023/03/04 05:02:36;;;;;;;66.93;48.28;;;15.70;55.60;;;;;;4936834;28;86973;-54
2023/03/04 05:05:06;;;;;;;64.68;48.22;;;15.80;55.60;;;;;;4939784;28;91335;-50
2023/03/04 05:07:33;;;;;;;66.38;48.28;;;15.80;55.60;;;;;;4923667;28;86334;-55
2023/03/04 05:09:58;;;;;;;65.97;48.42;;;15.80;55.60;;;;;;4924368;28;89475;-53
2023/03/04 05:12:24;;;;;;;67.05;48.55;;;15.70;55.70;;;;;;4939334;28;91138;-55
2023/03/04 05:14:50;;;;;;;67.00;48.08;;;15.70;55.70;;;;;;4947233;28;87491;-54
2023/03/04 05:17:16;;;;;;;65.38;48.35;;;15.80;55.80;;;;;;4933197;28;88179;-55
2023/03/04 05:19:41;;;;;;;65.63;48.65;;;15.70;55.60;;;;;;4928226;28;87273;-49
2023/03/04 05:22:07;;;;;;;66.95;48.63;;;15.80;55.90;;;;;;4934258;28;85461;-55
2023/03/04 05:24:36;;;;;;;66.15;48.25;;;15.80;55.80;;;;;;4919146;28;87413;-55
2023/03/04 05:27:02;;;;;;;67.40;48.42;;;15.90;55.60;;;;;;4932985;28;85602;-55
2023/03/04 05:29:27;;;;;;;65.25;48.15;;;15.80;55.60;;;;;;4928479;28;87454;-50
2023/03/04 05:31:53;;;;;;;66.72;48.38;;;15.80;55.80;;;;;;4936538;28;85629;-55
2023/03/04 05:34:19;;;;;;;66.40;48.28;;;15.80;55.80;;;;;;4930766;28;86369;-55
2023/03/04 05:36:44;;;;;;;65.70;48.33;;;15.70;55.80;;;;;;4927672;28;85878;-55
2023/03/04 05:39:10;;;;;;;65.80;48.05;;;15.80;55.90;;;;;;4930234;28;87106;-55
2023/03/04 05:41:36;;;;;;;66.50;48.53;;;15.70;55.80;;;;;;4922853;28;86316;-55
2023/03/04 05:44:02;;;;;;;67.47;48.28;;;15.60;55.90;;;;;;4924605;28;86364;-54
2023/03/04 05:46:28;;;;;;;68.38;48.25;;;15.70;55.90;;;;;;4927548;28;86113;-53
2023/03/04 05:48:54;;;;;;;66.65;48.47;;;15.70;55.60;;;;;;4921788;28;86331;-51
2023/03/04 05:51:20;;;;;;;65.78;48.63;;;15.90;55.40;;;;;;4929891;28;89333;-54
2023/03/04 05:53:47;;;;;;;65.45;48.10;;;15.90;55.40;;;;;;4920562;28;86018;-55
2023/03/04 05:56:15;;;;;;;66.82;48.13;;;15.90;55.40;;;;;;4929141;28;86418;-55
2023/03/04 05:58:41;;;;;;;66.15;47.88;;;15.90;55.40;;;;;;4924230;28;85768;-54
2023/03/04 06:01:07;;;;;;;69.47;48.25;;;15.90;55.50;;;;;;4939281;28;87037;-54
2023/03/04 06:03:33;;;;;;;67.65;48.08;;;16.00;55.40;;;;;;4925907;28;86174;-54
2023/03/04 06:05:59;;;;;;;63.53;47.85;;;15.90;55.30;;;;;;4931622;28;86838;-55
2023/03/04 06:08:25;;;;;;;68.75;47.95;;;15.90;55.60;;;;;;4932593;28;86690;-54
2023/03/04 06:10:53;;;;;;;66.00;47.90;;;15.90;55.40;;;;;;4930017;28;89047;-55
2023/03/04 06:13:18;;;;;;;69.30;48.15;;;15.90;55.60;;;;;;4933683;28;88280;-55
2023/03/04 06:15:44;;;;;;;67.43;48.08;;;15.90;55.30;;;;;;4934815;28;86839;-54
2023/03/04 06:18:10;;;;;;;65.90;48.30;;;15.90;55.60;;;;;;4929820;28;87638;-55
2023/03/04 06:20:36;;;;;;;68.18;48.17;;;15.90;55.50;;;;;;4926971;28;85886;-55
2023/03/04 06:23:02;;;;;;;66.93;48.03;;;15.80;55.60;;;;;;4929229;28;87811;-52
2023/03/04 06:25:28;;;;;;;69.93;47.95;;;15.90;55.50;;;;;;4923117;28;86321;-52
2023/03/04 06:27:54;;;;;;;66.90;48.40;;;15.90;55.80;;;;;;4935380;28;85628;-55
2023/03/04 06:30:20;;;;;;;66.63;48.05;;;15.90;55.90;;;;;;4924520;28;91154;-55
2023/03/04 06:32:46;;;;;;;64.78;47.85;;;15.80;55.60;;;;;;4936042;28;85665;-53
2023/03/04 06:35:14;;;;;;;65.50;48.03;;;15.90;55.80;;;;;;4933402;28;85817;-54
2023/03/04 06:37:39;;;;;;;63.78;47.67;;;15.90;55.70;;;;;;4927482;28;89483;-53
2023/03/04 06:40:06;;;;;;;67.97;47.85;;;15.80;55.90;;;;;;4929326;28;85866;-53
2023/03/04 06:42:33;;;;;;;66.65;47.92;;;15.80;56.10;;;;;;4921170;28;86283;-53
2023/03/04 06:44:58;;;;;;;67.22;48.08;;;15.80;56.10;;;;;;4926011;28;88043;-55
2023/03/04 06:47:24;;;;;;;68.18;48.03;;;15.90;55.70;;;;;;4928154;28;88731;-54
2023/03/04 06:49:50;;;;;;;65.07;47.92;;;16.00;55.50;;;;;;4932339;28;85780;-53
2023/03/04 06:52:16;;;;;;;67.28;48.00;;;16.00;55.20;;;;;;4929169;28;89719;-51
2023/03/04 06:54:41;;;;;;;68.18;47.88;;;15.80;55.70;;;;;;4929084;28;85904;-53
2023/03/04 06:57:15;;;;;;;66.55;47.65;;;15.80;55.80;;;;;;4936612;28;85572;-53
2023/03/04 06:59:41;;;;;;;67.07;47.83;;;15.80;55.80;;;;;;4933927;28;86159;-55
2023/03/04 07:02:12;;;;;;;64.32;48.03;;;15.80;55.70;;;;;;4927072;28;85586;-55
2023/03/04 07:04:38;;;;;;;67.22;48.08;;;15.80;55.60;;;;;;4931836;28;87789;-54
2023/03/04 07:07:04;;;;;;;64.72;47.75;;;15.80;55.50;;;;;;4932644;28;87398;-55
2023/03/04 07:09:30;;;;;;;66.90;47.97;;;15.70;55.60;;;;;;4928056;28;86663;-55
2023/03/04 07:11:55;;;;;;;67.00;48.22;;;15.80;55.70;;;;;;4922001;28;86209;-54
2023/03/04 07:14:21;;;;;;;66.72;48.03;;;15.80;55.50;;;;;;4923887;28;86980;-54
2023/03/04 07:16:47;;;;;;;64.95;47.95;;;15.90;55.50;;;;;;4927040;28;87569;-52
2023/03/04 07:19:12;;;;;;;66.05;47.97;;;15.80;55.30;;;;;;4924781;28;86106;-54
2023/03/04 07:21:38;;;;;;;70.18;48.08;;;15.80;55.50;;;;;;4922164;28;85948;-54
2023/03/04 07:24:04;;;;;;;67.40;47.80;;;15.80;55.60;;;;;;4929832;28;85679;-53
2023/03/04 07:26:30;;;;;;;66.13;47.90;;;15.90;55.40;;;;;;4935947;28;86140;-53
2023/03/04 07:28:58;;;;;;;68.85;47.85;;;15.80;55.20;;;;;;4931861;28;85562;-54
2023/03/04 07:31:28;;;;;;;65.82;48.17;;;15.70;55.90;;;;;;4923828;28;86025;-55
2023/03/04 07:33:57;;;;;;;65.05;47.63;;;15.80;55.50;;;;;;4927170;28;87005;-52
2023/03/04 07:36:23;;;;;;;66.90;47.95;;;15.80;55.40;;;;;;4938523;28;85959;-61
2023/03/04 07:38:49;;;;;;;66.50;47.92;;;15.80;55.10;;;;;;4924290;28;85647;-54
2023/03/04 07:41:16;;;;;;;66.97;48.25;;;15.70;55.10;;;;;;4926994;28;87419;-54
2023/03/04 07:43:43;;;;;;;65.45;47.92;;;15.70;55.20;;;;;;4933433;28;88193;-48
2023/03/04 07:46:09;;;;;;;68.07;47.88;;;15.70;55.20;;;;;;4926725;28;89483;-51
2023/03/04 07:48:36;;;;;;;67.30;47.78;;;15.70;55.10;;;;;;4926042;28;86783;-55
2023/03/04 07:51:10;;;;;;;65.88;48.35;;;15.70;54.90;;;;;;4922200;28;87322;-51
2023/03/04 07:53:37;;;;;;;66.30;47.63;;;15.70;55.10;;;;;;4939501;28;87062;-54
2023/03/04 07:56:04;;;;;;;66.50;48.22;;;15.70;55.10;;;;;;4927300;28;86053;-55
2023/03/04 07:58:31;;;;;;;66.55;48.15;;;15.70;55.10;;;;;;4925290;28;85970;-55
2023/03/04 08:00:57;;;;;;;67.90;48.17;;;15.70;55.10;;;;;;4936068;28;87547;-53
2023/03/04 08:03:23;;;;;;;65.25;47.90;;;15.70;54.90;;;;;;4935852;28;86932;-55
2023/03/04 08:05:49;;;;;;;64.05;47.85;;;15.80;54.90;;;;;;4921842;28;86789;-54
2023/03/04 08:08:14;;;;;;;66.63;47.83;;;15.80;54.80;;;;;;4928684;28;85514;-55
2023/03/04 08:10:40;;;;;;;66.47;48.10;;;15.80;54.80;;;;;;4933026;28;86646;-49
2023/03/04 08:13:06;;;;;;;67.25;48.42;;;15.80;54.50;;;;;;4934785;28;86854;-50
2023/03/04 08:15:34;;;;;;;66.45;48.08;;;15.80;54.50;;;;;;4926078;28;92021;-54
2023/03/04 08:18:00;;;;;;;68.43;48.13;;;15.90;54.50;;;;;;4932124;28;85658;-55
2023/03/04 08:20:27;;;;;;;66.45;47.95;;;15.90;54.50;;;;;;4933235;28;85640;-53
2023/03/04 08:22:52;;;;;;;66.10;48.25;;;15.90;54.40;;;;;;4935086;28;86897;-55
2023/03/04 08:25:18;;;;;;;66.53;48.00;;;15.90;54.50;;;;;;4924195;28;85904;-53
2023/03/04 08:27:44;;;;;;;69.18;48.33;;;15.90;54.20;;;;;;4935403;28;85652;-52
2023/03/04 08:30:10;;;;;;;65.53;48.22;;;15.90;54.20;;;;;;4928454;28;89592;-54
2023/03/04 08:32:36;;;;;;;65.57;47.85;;;16.00;54.80;;;;;;4921022;28;88653;-55
2023/03/04 08:35:01;;;;;;;65.70;48.22;;;15.90;54.40;;;;;;4930355;28;90884;-54
2023/03/04 08:37:28;;;;;;;66.88;48.05;;;15.90;54.30;;;;;;4936758;28;88509;-53
2023/03/04 08:39:54;;;;;;;68.53;48.25;;;15.80;54.60;;;;;;4936031;28;86581;-54
2023/03/04 08:42:20;;;;;;;72.50;48.58;;;15.80;54.30;;;;;;4927134;28;88459;-52
2023/03/04 08:44:46;;;;;;;69.00;48.40;;;15.80;54.20;;;;;;4929743;28;85709;-52
2023/03/04 08:47:11;;;;;;;66.18;48.10;;;15.80;54.20;;;;;;4940215;28;85804;-55
2023/03/04 08:49:37;;;;;;;71.70;48.17;;;15.70;54.40;;;;;;4935387;28;87143;-55
2023/03/04 08:52:03;;;;;;;67.10;48.10;;;15.80;54.30;;;;;;4928822;28;88568;-54
2023/03/04 08:54:29;;;;;;;68.50;48.28;;;15.80;54.30;;;;;;4935328;28;85893;-54
2023/03/04 08:56:54;;;;;;;69.32;48.05;;;15.80;54.30;;;;;;4938837;28;87931;-52
2023/03/04 08:59:20;;;;;;;68.40;48.05;;;15.80;54.40;;;;;;4929617;28;86025;-56
2023/03/04 09:01:46;;;;;;;65.68;48.20;;;15.80;54.30;;;;;;4929863;28;87462;-53
2023/03/04 09:04:12;;;;;;;67.55;48.45;;;15.80;54.00;;;;;;4935470;28;87191;-54
2023/03/04 09:06:37;;;;;;;67.90;48.28;;;15.90;54.00;;;;;;4934197;28;86390;-55
2023/03/04 09:09:03;;;;;;;69.47;48.72;;;15.90;53.80;;;;;;4923231;28;93436;-52
2023/03/04 09:11:30;;;;;;;65.32;48.53;;;15.90;53.90;;;;;;4932594;28;86119;-53
2023/03/04 09:13:56;;;;;;;68.97;48.28;;;15.90;53.90;;;;;;4940025;28;87199;-52
2023/03/04 09:16:22;;;;;;;68.43;48.47;;;15.90;53.90;;;;;;4933144;28;86045;-52
2023/03/04 09:18:47;;;;;;;71.82;48.17;;;15.90;54.00;;;;;;4940047;28;86543;-53
2023/03/04 09:21:13;;;;;;;68.78;48.33;;;15.90;53.90;;;;;;4938612;28;87361;-55
2023/03/04 09:23:39;;;;;;;66.63;48.20;;;15.90;53.90;;;;;;4933977;28;86373;-52
2023/03/04 09:26:26;;;;;;;66.15;47.88;;;16.00;53.90;;;;;;4929643;28;85454;-56
2023/03/04 09:28:54;;;;;;;66.00;47.78;;;16.00;53.20;;;;;;4931113;28;88634;-54
2023/03/04 09:31:20;;;;;;;66.47;48.17;;;16.00;53.50;;;;;;4927088;28;89693;-52
2023/03/04 09:33:47;;;;;;;67.18;48.50;;;16.00;54.00;;;;;;4931144;28;87121;-52
2023/03/04 09:36:14;;;;;;;67.38;48.65;;;16.00;54.00;;;;;;4932054;28;86561;-52
2023/03/04 09:38:41;;;;;;;66.03;48.28;;;16.00;54.00;;;;;;4933512;28;86962;-54
2023/03/04 09:41:19;;;;;;;64.97;48.25;;;16.00;54.00;;;;;;4930758;28;87091;-54
2023/03/04 09:43:45;;;;;;;66.78;48.50;;;15.90;53.60;;;;;;4923464;28;86507;-52
2023/03/04 09:46:15;;;;;;;66.18;48.55;;;16.00;54.20;;;;;;4939595;28;86926;-55
2023/03/04 09:48:50;;;;;;;66.13;48.28;;;16.00;53.80;;;;;;4928470;28;89179;-51
2023/03/04 09:51:21;;;;;;;68.43;48.65;;;16.10;53.70;;;;;;4927318;28;86974;-51
2023/03/04 09:54:08;;;;;;;66.63;48.57;;;16.10;53.60;;;;;;4938669;28;87437;-48
2023/03/04 09:56:37;;;;;;;67.25;48.45;;;16.20;53.50;;;;;;4935034;28;85598;-53
2023/03/04 09:59:25;;;;;;;67.63;48.45;;;16.30;53.20;;;;;;4923837;28;90616;-53
2023/03/04 10:01:57;;;;;;;64.88;48.13;;;16.30;53.30;;;;;;4930195;28;86768;-53
2023/03/04 10:04:31;;;;;;;69.00;48.47;;;16.40;53.40;;;;;;4927340;28;86909;-52
2023/03/04 10:06:57;;;;;;;73.28;48.35;;;16.40;52.90;;;;;;4930801;28;85555;-54
2023/03/04 10:09:28;;;;;;;69.75;48.47;;;16.50;53.00;;;;;;4930043;28;86106;-54
2023/03/04 10:12:05;;;;;;;68.03;48.38;;;16.60;53.10;;;;;;4924224;28;91506;-55
2023/03/04 10:14:44;;;;;;;68.50;48.67;;;16.60;53.50;;;;;;4921380;28;88542;-51
2023/03/04 10:17:28;;;;;;;68.15;48.20;;;16.50;53.40;;;;;;4927095;28;85653;-55
2023/03/04 10:20:17;;;;;;;69.00;48.45;;;16.50;53.40;;;;;;4921680;28;86369;-55
2023/03/04 10:22:45;;;;;;;67.45;48.47;;;16.50;53.60;;;;;;4920275;28;87052;-52
2023/03/04 10:25:16;;;;;;;67.05;48.47;;;16.40;53.50;;;;;;4934596;28;86728;-53
2023/03/04 10:27:43;;;;;;;;;;;16.40;54.00;;;;;;4936410;28;85146;-54
2023/03/04 10:30:22;;;;;;;67.80;48.13;;;16.50;53.80;;;;;;4918908;28;85968;-51
2023/03/04 10:32:47;;;;;;;69.18;48.63;;;16.70;53.60;;;;;;4913198;28;86812;-55
2023/03/04 10:35:13;;;;;;;73.38;48.60;;;16.80;53.20;;;;;;4912307;28;89487;-55
2023/03/04 10:37:48;;;;;;;70.55;48.58;;;16.70;53.10;;;;;;4920169;28;86764;-52
2023/03/04 10:40:22;;;;;;;67.88;48.10;;;16.70;52.90;;;;;;4922251;28;87297;-54
2023/03/04 10:42:49;;;;;;;66.45;48.33;;;16.70;52.90;;;;;;4935003;28;90145;-54
2023/03/04 10:45:38;;;;;;;66.85;48.58;;;16.70;52.50;;;;;;4926375;28;86397;-53
2023/03/04 10:48:04;;;;;;;68.82;48.25;;;16.70;53.00;;;;;;4926759;28;85984;-55
2023/03/04 10:50:31;;;;;;;67.28;48.40;;;16.80;53.10;;;;;;4928117;28;86200;-55
2023/03/04 10:52:57;;;;;;;69.03;48.63;;;16.70;53.10;;;;;;4917043;28;87208;-53
2023/03/04 10:55:42;;;;;;;70.70;48.80;;;16.70;52.90;;;;;;4928590;28;89353;-55
2023/03/04 10:58:14;;;;;;;67.00;48.55;;;16.90;53.40;;;;;;4936419;28;85946;-54
2023/03/04 11:00:40;;;;;;;67.53;48.45;;;17.10;53.60;;;;;;4917033;28;86033;-48
2023/03/04 11:03:22;;;;;;;69.45;48.45;;;17.10;53.40;;;;;;4926824;28;86898;-48
2023/03/04 11:05:52;;;;;;;68.55;48.47;;;17.20;53.70;;;;;;4928498;28;85735;-66
2023/03/04 11:08:22;;;;;;;66.70;48.38;;;17.20;53.90;;;;;;4910791;28;90766;-47
2023/03/04 11:10:51;;;;;;;67.78;48.45;;;17.20;53.80;;;;;;4922355;28;93196;-51
2023/03/04 11:13:21;;;;;;;71.38;48.50;;;17.20;53.80;;;;;;4928154;28;91084;-54
2023/03/04 11:15:57;;;;;;;68.30;48.08;;;17.20;53.70;;;;;;4928971;28;91539;-48
2023/03/04 11:18:47;;;;;;;72.88;49.28;;;17.20;53.80;;;;;;4921480;28;86485;-52
2023/03/04 11:21:17;;;;;;;75.22;49.22;;;17.30;53.70;;;;;;4927453;28;86740;-54
2023/03/04 11:23:46;;;;;;;73.03;48.90;;;17.30;53.80;;;;;;4919028;28;92186;-56
2023/03/04 11:26:22;;;;;;;72.70;49.25;;;17.20;53.80;;;;;;4922486;28;87104;-51
2023/03/04 11:28:53;;;;;;;72.40;49.45;;;17.20;53.30;;;;;;4925569;28;87705;-55
2023/03/04 11:31:29;;;;;;;73.80;49.28;;;17.20;53.60;;;;;;4924235;28;87937;-51
2023/03/04 11:34:06;;;;;;;72.07;48.92;;;17.30;53.50;;;;;;4929313;28;85732;-48
2023/03/04 11:36:32;;;;;;;81.68;49.20;;;17.30;53.40;;;;;;4931650;28;86034;-46
2023/03/04 11:38:58;;;;;;;73.45;49.25;;;17.30;53.30;;;;;;4930063;28;85872;-46
2023/03/04 11:41:47;;;;;;;71.53;48.97;;;17.40;53.30;;;;;;4917880;28;87971;-49
2023/03/04 11:44:13;;;;;;;72.97;49.42;;;17.50;52.90;;;;;;4911590;28;88719;-51
2023/03/04 11:47:11;;;;;;;75.50;50.83;;;17.60;52.50;;;;;;4918503;28;88655;-50
2023/03/04 11:50:03;;;;;;;76.55;51.35;;;17.50;52.30;;;;;;4936543;28;87758;-49
2023/03/04 11:52:29;;;;;;;;;;;17.60;52.60;;;;;;4925081;28;88394;-53
2023/03/04 11:55:12;;;;;;;74.65;51.20;;;17.60;53.40;;;;;;4915484;28;85480;-55
2023/03/04 12:00:21;;;;;;;82.28;51.53;;;17.80;54.00;;;;;;4956733;28;88868;-46
2023/03/04 12:05:36;;;;;;;77.75;51.25;;;18.00;53.90;;;;;;4954137;28;82939;-53
2023/03/04 12:08:37;;;;;;;80.53;51.00;;;18.10;54.50;;;;;;4940424;28;89107;-54
2023/03/04 12:11:18;;;;;;;81.47;50.92;;;18.20;54.60;;;;;;4920280;28;88871;-47
2023/03/04 12:13:58;;;;;;;78.72;50.90;;;18.20;54.50;;;;;;4940711;28;87015;-50
2023/03/04 12:16:52;;;;;;;74.50;50.28;;;18.40;54.50;;;;;;4930214;28;85835;-46
2023/03/04 12:19:56;;;;;;;74.97;50.58;;;18.50;54.60;;;;;;4914899;28;87619;-45
2023/03/04 12:22:49;;;;;;;74.97;50.15;;;18.50;54.70;;;;;;4926291;28;86341;-50
2023/03/04 12:25:21;;;;;;;81.25;50.97;;;18.60;54.80;;;;;;4940074;28;87366;-49
2023/03/04 12:27:59;;;;;;;;;;;18.50;54.30;;;;;;4946111;28;86543;-53
2023/03/04 12:31:07;;;;;;;74.55;50.42;;;18.60;54.50;;;;;;4938269;28;85134;-46
2023/03/04 12:34:13;;;;;;;76.60;50.33;;;18.60;54.80;;;;;;4940068;28;88210;-55
2023/03/04 12:37:04;;;;;;;75.53;50.20;;;18.70;54.90;;;;;;4936852;28;85548;-56
2023/03/04 12:39:59;;;;;;;76.10;50.38;;;18.80;55.10;;;;;;4932902;28;86067;-55
2023/03/04 12:42:44;;;;;;;75.53;50.97;;;18.80;54.90;;;;;;4937598;28;91624;-64